Predmore, Minnesota
Current Conditions -  °F | °C
As of 3:54 AM on Saturday 25 Oct 2014 (Local Time) from K9MN Reporting Station
Scattered Clouds Scattered Clouds  
Wind Chill: 55°   Ceiling: Unl
Heat Index: 55°   Visibility: 10mi
Dew Point: 42°   Wind: 9mph
Humidity: 62%   Direction: 270°W
Pressure: 29.95"   Gusts: NA
Location:  44.0209°N, 92.2585°W
Report Text: K9MN 250854Z AUTO 27008KT 10SM SCT120 13/05 A2995 RMK AO1 T01250053
Loading
Personal Weather Stations






























Interactive Weather Map
Tropical Storm Tracking
New forecast layout! Learn more

10-Day Weather Forecast

Advertisements
Track Severe Weather on mobile